createdAt,value
2023-03-23T02:00:15.554Z,28.49
2023-03-23T02:04:15.591Z,28.51
2023-03-23T02:08:15.658Z,28.48
2023-03-23T02:12:15.648Z,28.47
2023-03-23T02:16:15.698Z,28.49
2023-03-23T02:20:15.755Z,28.50
2023-03-23T02:24:15.861Z,28.53
2023-03-23T02:28:15.868Z,28.45
2023-03-23T02:32:15.864Z,28.49
2023-03-23T02:36:15.857Z,28.49
2023-03-23T02:40:15.848Z,28.48
2023-03-23T02:44:15.833Z,28.49
2023-03-23T02:48:15.816Z,28.50
2023-03-23T02:52:15.799Z,28.45
2023-03-23T02:56:15.785Z,28.45
2023-03-23T03:00:15.960Z,28.45
2023-03-23T03:04:15.748Z,28.45
2023-03-23T03:08:15.736Z,28.39
2023-03-23T03:12:15.696Z,28.39
2023-03-23T03:16:15.663Z,28.43
2023-03-23T03:20:15.641Z,28.44
2023-03-23T03:24:15.618Z,28.38
2023-03-23T03:28:15.612Z,28.39
2023-03-23T03:32:15.983Z,28.41
2023-03-23T03:36:15.637Z,28.37
2023-03-23T03:40:15.853Z,28.34
2023-03-23T03:44:15.935Z,28.39
2023-03-23T03:48:16.498Z,28.33
2023-03-23T03:52:16.297Z,28.37
2023-03-23T03:56:16.446Z,28.32
2023-03-23T04:00:16.639Z,28.37
2023-03-23T04:04:16.798Z,28.35
2023-03-23T04:08:16.916Z,28.28
2023-03-23T04:12:17.059Z,28.19
2023-03-23T04:16:17.176Z,28.07
2023-03-23T04:20:17.280Z,28.06
2023-03-23T04:24:23.242Z,27.90
2023-03-23T04:28:18.309Z,27.91
2023-03-23T04:32:17.220Z,27.88
2023-03-23T04:36:17.237Z,27.84
2023-03-23T04:40:17.230Z,27.77
2023-03-23T04:44:17.152Z,27.77
2023-03-23T04:48:17.139Z,27.76
2023-03-23T04:52:17.090Z,27.75
2023-03-23T04:56:17.051Z,27.73
2023-03-23T05:00:17.019Z,27.72
2023-03-23T05:04:16.988Z,27.65
2023-03-23T05:08:16.954Z,27.68
2023-03-23T05:12:16.915Z,27.65
2023-03-23T05:16:17.031Z,27.64
2023-03-23T05:20:16.875Z,27.65
2023-03-23T05:24:16.868Z,27.65
2023-03-23T05:28:16.864Z,27.63
2023-03-23T05:32:16.863Z,27.62
2023-03-23T05:36:16.841Z,27.66
2023-03-23T05:40:16.830Z,27.66
2023-03-23T05:44:16.801Z,27.69
2023-03-23T05:48:16.795Z,27.65
2023-03-23T05:52:16.806Z,27.65
2023-03-23T05:56:16.849Z,27.71
2023-03-23T06:00:16.767Z,27.68
2023-03-23T06:04:16.772Z,27.69
2023-03-23T06:08:16.805Z,27.71
2023-03-23T06:12:16.828Z,27.77
2023-03-23T06:16:16.856Z,27.84
2023-03-23T06:20:16.884Z,27.87
2023-03-23T06:24:16.915Z,28.02
2023-03-23T06:28:16.966Z,28.96
2023-03-23T06:32:17.037Z,30.15
2023-03-23T06:36:17.055Z,31.21
2023-03-23T06:40:17.143Z,32.15
2023-03-23T06:44:17.112Z,32.95
2023-03-23T06:48:17.079Z,33.47
2023-03-23T06:52:17.025Z,33.77
2023-03-23T06:56:16.989Z,34.18
2023-03-23T07:00:16.930Z,34.53
2023-03-23T07:04:16.880Z,35.40
2023-03-23T07:08:16.832Z,35.88
2023-03-23T07:12:16.790Z,36.69
2023-03-23T07:16:18.508Z,37.41
2023-03-23T07:20:16.836Z,38.16
2023-03-23T07:24:16.913Z,38.33
2023-03-23T07:28:17.037Z,31.87
2023-03-23T07:32:17.181Z,32.28
2023-03-23T07:36:17.365Z,31.62
2023-03-23T07:40:17.395Z,30.02
2023-03-23T07:44:17.432Z,28.94
2023-03-23T07:48:21.445Z,30.69
2023-03-23T07:52:17.504Z,30.69
2023-03-23T07:56:17.481Z,30.81
2023-03-23T08:00:17.452Z,30.84
2023-03-23T08:04:17.417Z,30.91
2023-03-23T08:08:17.382Z,30.87
2023-03-23T08:12:17.346Z,30.91
2023-03-23T08:16:17.294Z,30.35
2023-03-23T08:20:17.293Z,30.62
2023-03-23T08:24:17.233Z,30.54
2023-03-23T08:28:17.200Z,30.75
2023-03-23T08:32:17.186Z,30.89
2023-03-23T08:36:17.170Z,31.06
2023-03-23T08:40:18.286Z,31.31
2023-03-23T08:44:17.011Z,31.66
2023-03-23T08:48:17.185Z,32.06
2023-03-23T08:52:18.017Z,32.45
2023-03-23T08:56:17.504Z,32.82
2023-03-23T09:00:17.768Z,33.08
2023-03-23T09:04:17.726Z,33.13
2023-03-23T09:08:17.837Z,33.06
2023-03-23T09:12:17.980Z,32.58
2023-03-23T09:16:18.166Z,30.67
2023-03-23T09:20:18.200Z,31.12
2023-03-23T09:24:18.299Z,31.64
2023-03-23T09:28:18.395Z,28.28
2023-03-23T09:32:18.529Z,26.71
2023-03-23T09:36:18.675Z,28.41
2023-03-23T09:40:19.116Z,28.96
2023-03-23T09:44:18.879Z,29.14
2023-03-23T09:48:18.954Z,29.71
2023-03-23T09:52:18.905Z,30.07
2023-03-23T09:56:18.913Z,30.53
2023-03-23T10:00:18.799Z,30.97
2023-03-23T10:04:18.718Z,31.14
2023-03-23T10:08:18.688Z,31.55
2023-03-23T10:12:19.146Z,32.17
2023-03-23T10:16:18.539Z,32.45
2023-03-23T10:20:18.473Z,33.23
2023-03-23T10:24:18.412Z,32.98
2023-03-23T10:28:18.355Z,33.29
2023-03-23T10:32:19.059Z,33.61
2023-03-23T10:36:18.258Z,33.74
2023-03-23T10:40:18.123Z,33.72
2023-03-23T10:44:18.054Z,34.60
2023-03-23T10:48:17.964Z,35.25
2023-03-23T10:52:17.894Z,35.93
2023-03-23T10:56:17.820Z,36.52
2023-03-23T11:00:17.742Z,37.28
2023-03-23T11:04:17.649Z,37.92
2023-03-23T11:08:17.642Z,39.40
2023-03-23T11:12:19.398Z,38.22
2023-03-23T11:16:17.462Z,37.96
2023-03-23T11:20:17.398Z,37.65
2023-03-23T11:24:17.334Z,37.56
2023-03-23T11:28:17.269Z,37.57
2023-03-23T11:32:17.193Z,37.51
2023-03-23T11:36:17.297Z,37.50
2023-03-23T11:40:17.415Z,37.53
2023-03-23T11:44:17.536Z,37.46
2023-03-23T11:48:17.676Z,37.39
2023-03-23T11:52:17.848Z,37.33
2023-03-23T11:56:17.985Z,37.20
2023-03-23T12:00:18.141Z,37.23
2023-03-23T12:04:18.331Z,37.15
2023-03-23T12:12:18.692Z,37.01
2023-03-23T12:16:18.896Z,36.89
2023-03-23T12:20:19.074Z,36.76
2023-03-23T12:24:19.268Z,36.70
2023-03-23T12:28:19.538Z,36.66
2023-03-23T12:32:19.696Z,36.58
2023-03-23T12:36:19.951Z,36.51
2023-03-23T12:40:20.136Z,36.44
2023-03-23T12:44:19.864Z,36.40
2023-03-23T12:48:19.815Z,36.34
2023-03-23T12:52:19.757Z,36.26
2023-03-23T12:56:19.708Z,36.27
2023-03-23T13:00:19.666Z,36.22
2023-03-23T13:04:19.612Z,35.57
2023-03-23T13:08:19.578Z,35.92
2023-03-23T13:12:19.519Z,36.36
2023-03-23T13:16:19.474Z,36.64
2023-03-23T13:20:19.427Z,36.36
2023-03-23T13:24:19.373Z,36.09
2023-03-23T13:28:19.327Z,35.96
2023-03-23T13:32:19.281Z,35.97
2023-03-23T13:36:19.397Z,35.96
2023-03-23T13:40:19.587Z,35.90
2023-03-23T13:44:19.789Z,35.87
2023-03-23T13:48:19.988Z,35.90
2023-03-23T13:52:19.934Z,35.81
2023-03-23T13:56:19.893Z,35.71
2023-03-23T14:00:19.862Z,35.71
2023-03-23T14:04:19.832Z,35.64
2023-03-23T14:08:19.809Z,35.58
2023-03-23T14:12:19.785Z,35.54
2023-03-23T14:16:19.784Z,35.49
2023-03-23T14:20:19.696Z,35.42
2023-03-23T14:24:19.667Z,35.38
2023-03-23T14:28:19.730Z,35.32
2023-03-23T14:32:19.600Z,35.31
2023-03-23T14:36:19.583Z,35.30
2023-03-23T14:40:19.554Z,35.25
2023-03-23T14:44:19.671Z,35.21
2023-03-23T14:48:19.794Z,35.18
2023-03-23T14:52:20.005Z,35.18
2023-03-23T14:56:20.051Z,35.09
2023-03-23T15:00:20.185Z,35.05
2023-03-23T15:04:20.399Z,35.08
2023-03-23T15:08:20.740Z,34.99
2023-03-23T15:12:20.605Z,34.95
2023-03-23T15:16:20.731Z,34.95
2023-03-23T15:20:20.866Z,34.91
2023-03-23T15:24:21.072Z,34.90
2023-03-23T15:28:21.246Z,34.87
2023-03-23T15:32:20.980Z,34.83
2023-03-23T15:36:20.935Z,34.88
2023-03-23T15:40:20.879Z,34.85
2023-03-23T15:44:20.840Z,34.75
2023-03-23T15:48:21.030Z,34.78
2023-03-23T15:52:20.975Z,34.76
2023-03-23T15:56:20.928Z,34.72
2023-03-23T16:00:20.954Z,34.63
2023-03-23T16:04:20.828Z,34.69
2023-03-23T16:08:20.778Z,34.62
2023-03-23T16:12:20.724Z,34.57
2023-03-23T16:16:20.818Z,34.54
2023-03-23T16:20:20.648Z,34.53
2023-03-23T16:24:20.585Z,34.43
2023-03-23T16:28:20.739Z,34.41
2023-03-23T16:32:20.698Z,34.41
2023-03-23T16:36:20.697Z,34.43
2023-03-23T16:40:20.631Z,34.42
2023-03-23T16:44:20.548Z,34.39
2023-03-23T16:48:21.275Z,34.46
2023-03-23T16:52:20.494Z,34.33
2023-03-23T16:56:20.786Z,34.34
2023-03-23T17:00:20.455Z,34.34
2023-03-23T17:04:20.419Z,34.36
2023-03-23T17:08:20.571Z,34.35
2023-03-23T17:12:20.677Z,34.36
2023-03-23T17:16:20.580Z,34.35
2023-03-23T17:20:20.789Z,34.34
2023-03-23T17:24:20.533Z,34.28
2023-03-23T17:28:21.103Z,34.25
2023-03-23T17:32:20.489Z,34.23
2023-03-23T17:36:20.563Z,34.20
2023-03-23T17:40:20.456Z,34.19
2023-03-23T17:44:20.422Z,34.16
2023-03-23T17:48:20.465Z,34.13
2023-03-23T17:52:20.649Z,34.12
2023-03-23T17:56:20.846Z,34.12
2023-03-23T18:00:21.028Z,34.02
2023-03-23T18:04:21.220Z,34.07
2023-03-23T18:08:21.417Z,34.00
2023-03-23T18:12:21.808Z,34.01
2023-03-23T18:16:21.814Z,34.01
2023-03-23T18:20:21.960Z,34.00
2023-03-23T18:24:22.164Z,34.00
2023-03-23T18:28:22.344Z,33.99
2023-03-23T18:32:22.537Z,33.98
2023-03-23T18:36:22.726Z,33.94
2023-03-23T18:40:22.933Z,34.01
2023-03-23T18:44:23.162Z,33.95
2023-03-23T18:48:23.822Z,33.93
2023-03-23T18:52:23.525Z,33.89
2023-03-23T18:56:23.715Z,33.89
2023-03-23T19:00:23.944Z,33.88
2023-03-23T19:04:24.144Z,33.84
2023-03-23T19:08:24.312Z,33.84
2023-03-23T19:12:24.525Z,33.82
2023-03-23T19:16:24.707Z,33.78
2023-03-23T19:20:54.860Z,33.77
2023-03-23T19:24:25.777Z,33.77
2023-03-23T19:32:25.722Z,33.76
2023-03-23T19:36:24.773Z,33.74
2023-03-23T19:40:39.592Z,33.74
2023-03-23T19:44:25.823Z,33.69
2023-03-23T19:48:24.795Z,33.68
2023-03-23T19:52:25.065Z,33.68
2023-03-23T19:56:25.464Z,33.63
2023-03-23T20:00:25.184Z,33.62
2023-03-23T20:04:25.812Z,33.66
2023-03-23T20:08:25.445Z,33.60
2023-03-23T20:12:25.586Z,33.66
2023-03-23T20:16:25.714Z,33.69
2023-03-23T20:20:25.861Z,33.67
2023-03-23T20:24:25.883Z,33.60
2023-03-23T20:28:25.985Z,33.57
2023-03-23T20:32:26.291Z,33.63
2023-03-23T20:36:26.318Z,33.60
2023-03-23T20:40:26.398Z,33.53
2023-03-23T20:44:26.465Z,33.56
2023-03-23T20:48:26.572Z,33.59
2023-03-23T20:52:26.685Z,33.65
2023-03-23T20:56:26.872Z,33.63
2023-03-23T21:00:26.972Z,33.53
2023-03-23T21:04:27.846Z,33.56
2023-03-23T21:08:27.282Z,33.55
2023-03-23T21:12:27.498Z,33.47
2023-03-23T21:16:27.524Z,33.57
2023-03-23T21:20:27.600Z,33.50
2023-03-23T21:24:27.766Z,33.47
2023-03-23T21:28:27.863Z,33.44
2023-03-23T21:32:27.979Z,33.47
2023-03-23T21:36:28.023Z,33.38
2023-03-23T21:40:28.051Z,33.41
2023-03-23T21:44:28.068Z,33.38
2023-03-23T21:48:28.388Z,33.37
2023-03-23T21:52:28.180Z,33.37
2023-03-23T21:56:28.257Z,33.31
2023-03-23T22:00:28.248Z,33.33
2023-03-23T22:04:28.314Z,33.32
2023-03-23T22:08:28.259Z,33.24
2023-03-23T22:12:28.255Z,33.27
2023-03-23T22:16:28.380Z,33.27
2023-03-23T22:20:28.284Z,33.29
2023-03-23T22:24:28.312Z,33.28
2023-03-23T22:28:28.408Z,33.22
2023-03-23T22:32:28.426Z,33.20
2023-03-23T22:36:28.364Z,33.18
2023-03-23T22:40:28.364Z,33.19
2023-03-23T22:44:28.930Z,33.14
2023-03-23T22:48:28.321Z,33.21
2023-03-23T22:52:28.418Z,33.18
2023-03-23T22:56:28.313Z,33.16
2023-03-23T23:00:28.277Z,33.12
2023-03-23T23:04:28.329Z,33.06
2023-03-23T23:08:28.322Z,33.12
2023-03-23T23:12:28.311Z,33.10
2023-03-23T23:16:28.382Z,33.11
2023-03-23T23:20:28.528Z,33.04
2023-03-23T23:24:28.762Z,32.95
2023-03-23T23:28:28.993Z,33.01
2023-03-23T23:32:29.318Z,33.01
2023-03-23T23:36:29.496Z,32.95
2023-03-23T23:40:29.636Z,32.95
2023-03-23T23:44:29.644Z,32.97
2023-03-23T23:48:29.653Z,32.95
2023-03-23T23:52:29.650Z,32.97
2023-03-23T23:56:29.707Z,32.95
